Αρχική σελίδα
METAR-TAF:

METAR-TAF

Αεροδρόμια :

Yap, Μικρονησία

γεωγραφικό πλάτος: 09-29N, γεωγραφικό μήκος: 138-05E, υψόμετρο: 28 μ

Παρών καιρός

Η αναφορά έγινε 20 λεπτά πριν, στις 00:52 UTC
Άνεμος 8 kt από Α
Θερμοκρασία 32°C
Υγρασία 71%
Πίεση 1011 hPa
Ορατότητα: 19.3 χλμ
Λίγα νέφη σε ύψος 1600 πόδια, Σωρείτες καθέτου αναπτύξεως.
Αρκετά νέφη σε ύψος 30000 πόδια

METAR: PTYA 120052Z 09008KT 12SM FEW016TCU BKN300 32/26 A2985 RMK TCU S SLP110 T03160264

Χρόνος: 11:12 (01:12 UTC)

Πρόγνωση Καιρού

Η αναφορά έγινε 1 ώρα και 38 λεπτά πριν, στις 23:34 UTC
Η πρόγνωση ισχύει από τις 12 στις 00 UTC έως τις 12 στις 24 UTC
Άνεμος 11 kt από Α/BA
Ορατότητα: 10 χλμ
Λίγα νέφη σε ύψος 1600 πόδια
Διάσπαρτα νέφη σε ύψος 5000 πόδια
Διάσπαρτα νέφη σε ύψος 14000 πόδια
Όμβροι σε κοντινή απόσταση

TAF: PTYA 112334Z 1200/1224 07011KT P6SM VCSH FEW016 SCT050 SCT140

Μετεωρολογικές αναφορές και προγνώσεις για περισσότερα από 4000 αεροδρόμια (δελτία METAR και TAF).

Οι διαθέσιμοι σταθμοί απεικονίζονται στο χάρτη με κίτρινες και κόκκινες κουκκίδες.

Μετακινήστε το ποντίκι πάνω από τις κουκκίδες για να δείτε το όνομα του σταθμού.

Στη συνέχεια, κάντε κλικ για να δείτε τις μετεωρολογικές αναφορές και τις προγνώσεις καιρού.

Για να αλλάξετε το χάρτη: κάντε κλικ στα πράσινα κουμπιά με τον μαύρο σταυρό για να ζουμάρετε, στο πράσινο κουμπί με την παύλα για να αφαιρέσετε το ζουμ ή στα πράσινα βέλη για να αντιπαραβάλλετε χάρτες.


METAR-TAF: